Aérodrome :
LOGIN :

S'inscrire | Disclaimer

   EN    FR    IT 

 










Légende :    VFR   VFR Marginal   IFR   IFR Intensif   IFR Très Intensif
Visi : 
Plafond : 
>= 8 km
>= 3000ft
5 à 8 km
1000 à 3000 ft
1500m à 5 km
500 à 1000 ft
800 à 1500m
200 à 500 ft
< 800m
< 200 ft
Symboles :   Orages  Brouillard  Fortes neiges  Fortes précipitations  Vent > 20 kt
SIGMETs :   Divers  Orages  Givrage  Turbulence  Onde Orograph.  Cendres Volcan.







- Altitude de l'aérodrome : -11 ft
- Code IATA : AMS


EHAM - Amsterdam Schiphol

DERNIER METAR :
  • 220555Z VRB01KT 0900 R18C/0650D R27/1200N R18R/0900N R06/0375N FG BKN001 OVC002 07/07 Q1031 BECMG 0400 FG OVC000

METARs EXPIRÉS :
  • 220525Z 21001KT 1200 R18C/1400D R27/1800D R18R/1800D R06/0900N PRFG BKN001 OVC002 07/07 Q1031 BECMG 0400 FG OVC000
  • 220455Z VRB01KT 1600 R18C/1800N R27/P2000N R18R/P2000N R06/1100N BCFG FEW001 BKN002 OVC003 07/07 Q1031 BECMG 0400 FG OVC000
  • 220425Z VRB02KT 1400 R18C/P2000N R27/P2000N R18R/P2000N R06/P2000N BR BKN002 OVC003 08/07 Q1031 BECMG 0400 FG OVC000
  • 220355Z 13004KT 100V170 2100 BR OVC003 08/07 Q1031 BECMG 0400 FG OVC000
  • 220325Z 14005KT 2400 BR OVC004 08/07 Q1031 BECMG 1200 BKN002

TAF TAF EHAM
Valide du 22 à 06h jusqu'au 23 à 12h UTC


220511Z 2206/2312 12005KT 0400 FG OVC000
PROB30 2206/2208 0200
BECMG 2208/2210 15007KT 2500 BR BKN003
BECMG 2210/2213 19010KT CAVOK
BECMG 2214/2217 26005KT
BECMG 2218/2221 2000 BR BKN003
PROB30 2219/2306 0800 FG BKN001
BECMG 2304/2307 6000 NSW BKN020
TEMPO 2307/2312 2500 -DZ BKN006
Pas de NOTAMs connus pour ce terrain.



MET'MAP, la Météo Aéronautique d'un coup d'oeil ! - Copyright ORBIFLY Décembre 2007 - Disclaimer

ORBIFLY MET'MAP TEAM :

Programmation & Développement : Alexandra Zaïnal
Conception & Développement : Baudouin d'Aumeries
Co-Programmation & Développement : Marc-Olivier Méhu
Soutien technique & logistique : Manuel Goepfert

Contact : metmap@orbifly.com




SOURCES & CREDITS :

   NOAA